Terminal Aerodrome Forecast
Issued by NWS

Home | Current Version | Previous Version | Text Only | Print | Product List | Glossary On
Versions: 1 2 3 4 5 6 7 8 9 10 11 12 13 14 15 16 17 18 19 20 21 22 23 24 25 26 27
241
FTUS43 KLOT 241957 AAA
TAFMDW
TAF AMD
KMDW 241957Z 2420/2518 23018G28KT P6SM FEW090 FEW250
     FM242200 22014G21KT P6SM SCT090 SCT250
     FM250030 04010KT 6SM BR SCT007 BKN200
     FM250500 04010KT 3SM -SHRA BR SCT004 OVC007
     FM250800 05010KT 2SM -SHRA BR SCT002 OVC004
      TEMPO 2511/2515 1SM -DZ BR OVC003
     FM251600 09013KT 3SM -RADZ BR OVC004=

USA.gov is the U.S. government's official web portal to all federal, state and local government web resources and services.